Friday, July 3, 2015, 5:57 PM EDT

KPOU, Poughkeepsie Dutchess Cty

Location: Wappingers Falls, NY, United States Lat: 41.633
Local Time: 5:57 PM EDT (21:57 GMT) Lon: -73.883
Time Zone: US/Eastern Elev: 167 ft

Show me the last for .
Show Decoded

2015-07-03 16:53 METAR KPOU 032053Z AUTO 00000KT 10SM CLR 26/10 A2996 RMK AO2 SLP141 T02610100
                 58007 =
2015-07-03 15:53 METAR KPOU 031953Z AUTO 00000KT 10SM CLR 26/10 A2997 RMK AO2 SLP143 T02560100 =
2015-07-03 14:53 METAR KPOU 031853Z 00000KT 10SM CLR 25/08 A2998 RMK AO2 SLP148 T02500083 =
2015-07-03 13:53 METAR KPOU 031753Z 35005KT 10SM CLR 25/09 A2998 RMK AO2 SLP149 T02500094 10250
                 20167 56005 =
2015-07-03 12:53 METAR KPOU 031653Z 10SM CLR 24/10 A2998 RMK AO2 SLP149 T02390100 =
2015-07-03 11:53 METAR KPOU 031553Z VRB05KT 10SM CLR 23/12 A2999 RMK AO2 SLP152 T02330117 =
2015-07-03 10:53 METAR KPOU 031453Z 35008KT 10SM CLR 22/12 A3000 RMK AO2 SLP153 T02220122 50001 =
2015-07-03 09:53 METAR KPOU 031353Z 34005KT 10SM CLR 21/11 A3000 RMK AO2 SLP154 T02060111 =
2015-07-03 08:53 METAR KPOU 031253Z 02004KT 10SM CLR 18/11 A3001 RMK AO2 SLP157 T01830111 =
2015-07-03 07:53 METAR KPOU 031153Z 00000KT 10SM CLR 17/11 A2999 RMK AO2 SLP152 T01670111 10167
                 20111 51019 =
2015-07-03 06:53 METAR KPOU 031053Z 00000KT 10SM FEW002 13/12 A2998 RMK AO2 SLP149 T01330117 =
2015-07-03 05:53 METAR KPOU 030953Z AUTO 00000KT 10SM CLR 12/11 A2995 RMK AO2 SLP137 T01170106 =
2015-07-03 04:53 METAR KPOU 030853Z AUTO 00000KT 10SM CLR 13/11 A2994 RMK AO2 SLP133 T01280111
                 53005 =
2015-07-03 03:53 METAR KPOU 030753Z AUTO 00000KT 10SM CLR 13/12 A2992 RMK AO2 SLP129 T01330122 =
2015-07-03 02:53 METAR KPOU 030653Z AUTO 00000KT 10SM CLR 14/13 A2993 RMK AO2 SLP130 T01440128 =
2015-07-03 01:53 METAR KPOU 030553Z AUTO 00000KT 10SM CLR 15/13 A2992 RMK AO2 SLP129 T01500133
                 10228 20150 52013 =
2015-07-03 00:53 METAR KPOU 030453Z AUTO 00000KT 10SM CLR 18/14 A2991 RMK AO2 SLP124 T01780139
                 402610144 =
2015-07-02 23:53 METAR KPOU 030353Z AUTO 00000KT 10SM CLR 19/14 A2990 =
2015-07-02 22:53 METAR KPOU 030253Z AUTO 36003KT 10SM BKN060 20/17 A2989 RMK AO2 SLP116 T02000172
                 53010 =
2015-07-02 20:53 METAR KPOU 030053Z AUTO 00000KT 10SM CLR 22/17 A2986 RMK AO2 SLP107 T02170172 =
2015-07-02 19:53 METAR KPOU 022353Z AUTO 00000KT 10SM CLR 23/18 A2986 RMK AO2 SLP106 T02280183
                 10261 20228 55004 =
2015-07-02 18:53 METAR KPOU 022253Z AUTO 00000KT 10SM CLR 24/16 A2986 RMK AO2 SLP106 T02440156 =

Support USWX by starting your Amazon purchase here.